Terminal Aerodrome Forecast
Issued by NWS

Home | Current Version | Previous Version | Text Only | Print | Product List | Glossary On
Versions: 1 2 3 4 5 6 7 8 9 10 11 12 13 14
423
FTUS43 KAPX 061738
TAFAPN
TAF
KAPN 061738Z 0618/0718 26010G18KT P6SM -SN OVC024
     FM062100 24007KT P6SM OVC025
     FM070500 18005KT P6SM SCT025 OVC090
     FM071300 17009KT P6SM SCT020 OVC090=

USA.gov is the U.S. government's official web portal to all federal, state and local government web resources and services.